Terminal Aerodrome Forecast
Issued by NWS

Home | Current Version | Previous Version | Text Only | Print | Product List | Glossary On
Versions: 1 2 3 4 5 6 7 8 9 10 11 12
000
FTUS44 KBMX 242341
TAFMGM
TAF
KMGM 242341Z 2500/2524 33005KT P6SM BKN120
     FM250300 12004KT P6SM BKN050 OVC100
     FM250900 13007KT P6SM OVC020
     FM251400 17008KT P6SM VCSH BKN025=

USA.gov is the U.S. government's official web portal to all federal, state and local government web resources and services.